Time;durP1;ratioP1;P1;durP2;ratioP2;P2;SDS_P1;SDS_P2;PMS_P1;PMS_P2;Temp;Humidity;BMP_temperature;BMP_pressure;BME280_temperature;BME280_humidity;BME280_pressure;Samples;Min_cycle;Max_cycle;Signal;HPM_P1;HPM_P2
2023/07/26 00:01:41;;;;;;;3.90;2.50;;;;;;;13.92;86.38;100964.75;4792432;30;20057;-91
2023/07/26 00:07:28;;;;;;;4.97;2.80;;;;;;;13.90;87.18;100963.31;4791811;30;20081;-92
2023/07/26 00:09:53;;;;;;;7.90;3.05;;;;;;;13.83;87.81;100963.41;4790562;29;20043;-92
2023/07/26 00:12:19;;;;;;;3.63;2.60;;;;;;;13.81;88.92;100952.75;4790455;29;20070;-91
2023/07/26 00:14:52;;;;;;;3.47;2.70;;;;;;;13.77;88.91;100945.28;4790904;29;20495;-91
2023/07/26 00:17:17;;;;;;;4.93;2.92;;;;;;;13.77;89.46;100948.00;4805133;29;20042;-92
2023/07/26 00:19:48;;;;;;;4.80;2.88;;;;;;;13.77;88.61;100950.72;4775598;30;20043;-92
2023/07/26 00:22:16;;;;;;;5.00;3.00;;;;;;;13.73;89.91;100946.78;4775495;30;20200;-92
2023/07/26 00:24:41;;;;;;;4.18;2.65;;;;;;;13.75;89.56;100953.69;4791079;29;20092;-92
2023/07/26 00:27:16;;;;;;;5.57;2.80;;;;;;;13.74;89.60;100953.91;4791023;29;20031;-92
2023/07/26 00:29:47;;;;;;;3.50;2.50;;;;;;;13.69;89.64;100946.44;4790746;30;20411;-92
2023/07/26 00:32:15;;;;;;;4.75;2.88;;;;;;;13.74;89.73;100953.91;4820169;29;20040;-92
2023/07/26 00:34:43;;;;;;;4.93;3.17;;;;;;;13.67;89.79;100943.94;4790292;29;20611;-92
2023/07/26 00:37:11;;;;;;;5.07;3.00;;;;;;;13.74;89.66;100962.09;4790787;29;20039;-92
2023/07/26 00:39:39;;;;;;;3.30;2.63;;;;;;;13.61;90.18;100949.50;4791216;29;20063;-92
2023/07/26 00:42:05;;;;;;;5.70;2.63;;;;;;;13.65;90.08;100950.69;4790185;30;20036;-92
2023/07/26 00:44:30;;;;;;;7.00;3.10;;;;;;;13.57;89.82;100954.59;4790037;29;20040;-92
2023/07/26 00:46:58;;;;;;;3.27;2.80;;;;;;;13.60;90.57;100956.84;4790255;29;20035;-92
2023/07/26 00:49:24;;;;;;;5.40;3.20;;;;;;;13.54;90.53;100951.50;4789990;29;20065;-91
2023/07/26 00:51:50;;;;;;;5.90;3.30;;;;;;;13.59;90.93;100951.63;4789884;30;20505;-92
2023/07/26 00:57:47;;;;;;;4.80;3.17;;;;;;;13.56;91.92;100943.94;4790848;30;20104;-92
2023/07/26 01:03:21;;;;;;;4.28;2.72;;;;;;;13.59;92.45;100938.00;4736471;29;20124;-91
2023/07/26 01:09:32;;;;;;;4.65;3.40;;;;;;;13.54;92.27;100946.88;4790591;30;20095;-91
2023/07/26 01:12:15;;;;;;;5.20;3.45;;;;;;;13.43;92.74;100947.66;4774861;30;20035;-92
2023/07/26 01:18:06;;;;;;;4.15;3.50;;;;;;;13.28;94.35;100956.22;4791058;29;20492;-91
2023/07/26 01:20:34;;;;;;;5.63;3.38;;;;;;;13.21;95.78;100950.03;4774125;30;20122;-91
2023/07/26 01:23:00;;;;;;;4.72;3.53;;;;;;;13.19;96.09;100957.63;4774018;30;20101;-91
2023/07/26 01:25:25;;;;;;;5.23;3.60;;;;;;;13.06;96.43;100954.00;4774157;30;20035;-91
2023/07/26 01:27:53;;;;;;;7.50;3.73;;;;;;;13.02;96.57;100962.84;4773990;30;20112;-91
2023/07/26 01:30:21;;;;;;;4.00;3.45;;;;;;;12.96;97.61;100962.72;4774123;30;20035;-91
2023/07/26 01:32:51;;;;;;;5.72;3.50;;;;;;;12.94;97.57;100962.09;4773844;30;20100;-91
2023/07/26 01:35:21;;;;;;;6.32;3.22;;;;;;;12.89;98.42;100958.41;4773499;30;20034;-90
2023/07/26 01:37:47;;;;;;;5.13;3.70;;;;;;;12.84;98.51;100950.09;4774072;30;20045;-91
2023/07/26 01:40:14;;;;;;;4.10;2.93;;;;;;;12.91;98.63;100964.47;4773492;30;20447;-91
2023/07/26 01:42:41;;;;;;;6.03;3.22;;;;;;;12.81;98.63;100948.66;4758940;30;20396;-91
2023/07/26 01:45:11;;;;;;;5.78;3.22;;;;;;;12.90;98.47;100963.66;4758768;30;20130;-92
2023/07/26 01:47:39;;;;;;;4.00;3.35;;;;;;;12.87;98.94;100955.91;4759727;30;20062;-91
2023/07/26 01:50:08;;;;;;;5.65;3.80;;;;;;;12.91;98.92;100953.56;4773520;30;20039;-91
2023/07/26 01:52:36;;;;;;;4.93;3.50;;;;;;;12.94;98.60;100947.66;4773761;30;20027;-91
2023/07/26 01:55:02;;;;;;;6.85;3.75;;;;;;;12.94;98.61;100953.13;4773631;30;20023;-91
2023/07/26 01:57:31;;;;;;;5.82;3.28;;;;;;;12.91;98.59;100950.84;4773000;30;20414;-90
2023/07/26 01:59:59;;;;;;;5.80;3.30;;;;;;;12.89;98.80;100945.63;4773194;30;20067;-90
2023/07/26 02:02:24;;;;;;;5.78;3.22;;;;;;;12.89;99.46;100956.53;4773263;30;20031;-90
2023/07/26 02:04:50;;;;;;;4.87;3.07;;;;;;;12.81;99.47;100943.22;4766242;30;20074;-90
2023/07/26 02:07:15;;;;;;;4.80;3.27;;;;;;;12.76;99.84;100941.19;4788238;29;20541;-91
2023/07/26 02:09:43;;;;;;;4.97;2.95;;;;;;;12.75;99.50;100949.56;4788015;29;20034;-91
2023/07/26 02:12:09;;;;;;;4.13;2.70;;;;;;;12.75;99.29;100950.38;4788316;29;20427;-91
2023/07/26 02:14:37;;;;;;;2.90;2.53;;;;;;;12.67;99.29;100947.13;4802903;29;20039;-90
2023/07/26 02:17:05;;;;;;;3.58;2.38;;;;;;;12.63;99.46;100944.88;4787877;29;20592;-91
2023/07/26 02:19:32;;;;;;;3.77;2.43;;;;;;;12.60;99.48;100944.50;4788154;29;20088;-90
2023/07/26 02:22:00;;;;;;;3.30;2.13;;;;;;;12.55;98.89;100939.75;4802585;29;20137;-91
2023/07/26 02:24:33;;;;;;;3.15;1.92;;;;;;;12.50;99.05;100934.13;4788071;29;20581;-90
2023/07/26 02:27:03;;;;;;;2.83;1.95;;;;;;;12.50;99.86;100938.75;4788376;30;20353;-90
2023/07/26 02:29:29;;;;;;;3.45;1.95;;;;;;;12.44;99.07;100941.31;4773132;30;20035;-91
2023/07/26 02:32:05;;;;;;;5.73;2.27;;;;;;;12.43;99.43;100952.41;4787839;29;20031;-90
2023/07/26 02:34:31;;;;;;;2.95;2.03;;;;;;;12.45;99.22;100956.59;4788198;30;20050;-91
2023/07/26 02:36:56;;;;;;;4.73;2.20;;;;;;;12.44;100.00;100946.75;4787772;29;20027;-91
2023/07/26 02:39:22;;;;;;;3.90;2.20;;;;;;;12.51;100.00;100952.13;4787664;29;20450;-91
2023/07/26 02:41:50;;;;;;;4.63;2.53;;;;;;;12.48;100.00;100936.25;4802877;29;20038;-91
2023/07/26 02:44:15;;;;;;;3.97;2.05;;;;;;;12.51;100.00;100938.53;4787702;29;20046;-91
2023/07/26 02:46:46;;;;;;;3.70;2.30;;;;;;;12.58;100.00;100943.91;4787699;29;20035;-91
2023/07/26 02:49:11;;;;;;;4.13;1.92;;;;;;;12.55;99.34;100944.34;4788023;30;20054;-91
2023/07/26 02:51:37;;;;;;;4.03;2.17;;;;;;;12.56;99.07;100948.72;4787873;29;20035;-91
2023/07/26 02:54:05;;;;;;;3.40;2.15;;;;;;;12.62;99.62;100956.00;4787675;29;20389;-91
2023/07/26 02:56:33;;;;;;;3.50;2.30;;;;;;;12.54;100.00;100956.31;4772592;30;20043;-90
2023/07/26 02:58:59;;;;;;;3.42;2.47;;;;;;;12.27;100.00;100965.56;4787694;29;20035;-92
2023/07/26 03:01:24;;;;;;;3.93;3.20;;;;;;;11.84;100.00;100973.63;4788053;29;20465;-92
2023/07/26 03:03:52;;;;;;;6.53;3.40;;;;;;;11.63;100.00;100974.81;4787795;29;20050;-93
2023/07/26 03:06:18;;;;;;;5.20;3.40;;;;;;;11.38;100.00;100962.00;4787959;30;20549;-92
2023/07/26 03:08:53;;;;;;;5.95;4.30;;;;;;;11.28;100.00;100957.06;4788823;29;20127;-93
2023/07/26 03:11:19;;;;;;;6.32;4.47;;;;;;;11.24;100.00;100964.81;4791906;30;20508;-92
2023/07/26 03:13:56;;;;;;;7.00;4.70;;;;;;;11.21;100.00;100950.84;4791508;29;20040;-93
2023/07/26 03:16:22;;;;;;;8.20;4.50;;;;;;;11.19;100.00;100958.34;4791768;30;20035;-92
2023/07/26 03:18:49;;;;;;;7.13;5.00;;;;;;;11.11;100.00;100959.44;4791641;29;20039;-93
2023/07/26 03:21:17;;;;;;;6.47;4.22;;;;;;;11.13;100.00;100962.78;4791814;29;20040;-93
2023/07/26 03:23:53;;;;;;;5.93;4.53;;;;;;;11.02;100.00;100960.75;4806445;29;20031;-92
2023/07/26 03:26:19;;;;;;;6.93;4.05;;;;;;;10.99;100.00;100967.44;4791821;30;20037;-92
2023/07/26 03:28:47;;;;;;;7.53;4.10;;;;;;;10.94;100.00;100969.97;4791581;30;20039;-93
2023/07/26 03:31:14;;;;;;;7.93;4.18;;;;;;;10.88;100.00;100968.13;4791240;29;20439;-93
2023/07/26 03:33:42;;;;;;;6.75;4.45;;;;;;;10.93;100.00;100967.47;4791484;30;20031;-93
2023/07/26 03:36:07;;;;;;;5.83;4.47;;;;;;;11.01;100.00;100976.22;4791268;29;20076;-93
2023/07/26 03:38:36;;;;;;;7.45;4.03;;;;;;;10.97;100.00;100976.84;4790969;29;20035;-92
2023/07/26 03:41:01;;;;;;;5.57;3.70;;;;;;;10.92;100.00;100979.38;4791025;29;20035;-93
2023/07/26 03:43:32;;;;;;;5.43;3.03;;;;;;;10.86;100.00;100973.75;4790943;29;20031;-93
2023/07/26 03:46:00;;;;;;;4.93;3.40;;;;;;;10.80;100.00;100981.91;4790995;30;20035;-92
2023/07/26 03:48:27;;;;;;;4.10;3.25;;;;;;;10.70;100.00;100985.06;4790705;29;20027;-92
2023/07/26 03:50:53;;;;;;;5.03;3.43;;;;;;;10.66;100.00;100975.72;4791052;29;20096;-92
2023/07/26 03:53:18;;;;;;;5.18;3.55;;;;;;;10.73;100.00;100976.50;4791203;29;20036;-92
2023/07/26 03:55:51;;;;;;;6.37;3.40;;;;;;;10.61;100.00;100964.66;4790771;29;20062;-92
2023/07/26 03:58:19;;;;;;;4.95;3.40;;;;;;;10.61;100.00;100965.47;4805467;29;20035;-92
2023/07/26 04:00:54;;;;;;;6.80;3.70;;;;;;;10.71;100.00;100978.59;4805629;29;20075;-91
2023/07/26 04:03:29;;;;;;;5.10;3.23;;;;;;;10.62;100.00;100963.59;4790825;30;20095;-92
2023/07/26 04:05:58;;;;;;;5.05;3.47;;;;;;;10.60;100.00;100966.53;4790077;29;20055;-92
2023/07/26 04:08:31;;;;;;;7.40;3.80;;;;;;;10.57;100.00;100977.81;4790167;29;20480;-90
2023/07/26 04:11:01;;;;;;;5.95;3.58;;;;;;;10.55;100.00;100970.94;4790214;30;20043;-91
2023/07/26 04:13:35;;;;;;;6.28;3.78;;;;;;;10.51;100.00;100967.78;4790392;30;20031;-92
2023/07/26 04:16:00;;;;;;;6.43;4.10;;;;;;;10.52;100.00;100973.00;4791102;30;20047;-92
2023/07/26 04:18:26;;;;;;;6.95;4.97;;;;;;;10.48;100.00;100963.63;4805361;29;20467;-91
2023/07/26 04:20:52;;;;;;;7.03;4.90;;;;;;;10.47;100.00;100969.28;4789944;29;20035;-91
2023/07/26 04:23:20;;;;;;;7.60;5.45;;;;;;;10.43;100.00;100974.28;4790584;29;20083;-91
2023/07/26 04:25:52;;;;;;;9.55;5.07;;;;;;;10.42;100.00;100980.75;4819785;29;20043;-91
2023/07/26 04:28:35;;;;;;;;;;;;;;;;;;;;;
2023/07/26 04:31:03;;;;;;;9.55;6.38;;;;;;;10.46;100.00;100970.31;4790907;30;20047;-92
2023/07/26 04:33:36;;;;;;;7.95;6.15;;;;;;;10.50;100.00;100971.56;4789718;29;20035;-91
2023/07/26 04:36:07;;;;;;;9.85;7.10;;;;;;;10.48;100.00;100976.34;4804636;29;20043;-90
2023/07/26 04:38:35;;;;;;;8.88;6.95;;;;;;;10.50;100.00;100968.84;4789695;30;20031;-91
2023/07/26 04:41:06;;;;;;;10.93;7.17;;;;;;;10.52;100.00;100970.28;4789975;29;20130;-91
2023/07/26 04:43:32;;;;;;;11.68;7.70;;;;;;;10.60;100.00;100977.38;4775300;30;20073;-91
2023/07/26 04:46:00;;;;;;;14.30;8.05;;;;;;;10.61;100.00;100979.03;4789774;29;20039;-91
2023/07/26 04:48:31;;;;;;;12.10;8.10;;;;;;;10.61;100.00;100967.34;4774790;30;20550;-91
2023/07/26 04:50:57;;;;;;;12.13;7.97;;;;;;;10.65;100.00;100971.31;4804677;29;20039;-91
2023/07/26 04:53:32;;;;;;;14.55;8.32;;;;;;;10.77;100.00;100976.91;4790512;29;20042;-91
2023/07/26 04:56:08;;;;;;;;;;;;;;;;;;;;;
2023/07/26 04:58:34;;;;;;;13.27;8.82;;;;;;;10.82;100.00;100969.81;4791546;30;20040;-90
2023/07/26 05:00:59;;;;;;;12.87;8.47;;;;;;;10.87;100.00;100972.69;4789703;29;20522;-91
2023/07/26 05:03:25;;;;;;;11.73;7.77;;;;;;;10.86;100.00;100971.03;4789247;29;20035;-91
2023/07/26 05:05:51;;;;;;;12.40;8.93;;;;;;;10.94;100.00;100972.69;4789935;29;20086;-91
2023/07/26 05:08:28;;;;;;;13.30;9.13;;;;;;;11.03;100.00;100981.44;4789255;29;20042;-90
2023/07/26 05:10:54;;;;;;;13.38;9.00;;;;;;;11.12;100.00;100968.44;4789379;30;20066;-91
2023/07/26 05:13:28;;;;;;;16.70;9.77;;;;;;;11.13;100.00;100973.66;4789377;29;20077;-91
2023/07/26 05:16:06;;;;;;;16.02;9.10;;;;;;;11.23;100.00;100973.16;4789014;30;20027;-90
2023/07/26 05:18:32;;;;;;;17.27;9.27;;;;;;;11.29;100.00;100964.16;4789250;30;20114;-90
2023/07/26 05:21:00;;;;;;;14.57;8.40;;;;;;;11.42;100.00;100976.84;4788624;29;20081;-91
2023/07/26 05:23:25;;;;;;;14.35;8.35;;;;;;;11.44;100.00;100971.19;4788859;29;20039;-91
2023/07/26 05:25:55;;;;;;;11.30;8.60;;;;;;;11.54;100.00;100985.13;4789007;29;20062;-91
2023/07/26 05:28:26;;;;;;;13.07;8.63;;;;;;;11.64;100.00;100987.38;4803864;29;20069;-90
2023/07/26 05:31:04;;;;;;;14.57;8.33;;;;;;;11.76;100.00;100983.72;4787996;29;20065;-90
2023/07/26 05:33:30;;;;;;;11.70;7.90;;;;;;;11.89;100.00;100981.97;4774840;30;20063;-88
2023/07/26 05:35:55;;;;;;;13.10;8.10;;;;;;;12.11;100.00;100985.16;4818816;29;20067;-87
2023/07/26 05:38:21;;;;;;;12.25;7.90;;;;;;;12.32;100.00;100985.81;4788450;29;20035;-87
2023/07/26 05:40:46;;;;;;;14.13;8.20;;;;;;;12.46;100.00;100981.94;4803272;29;20043;-87
2023/07/26 05:43:12;;;;;;;11.97;7.50;;;;;;;12.55;100.00;100987.88;4803474;29;20035;-87
2023/07/26 05:45:41;;;;;;;16.43;7.97;;;;;;;12.68;100.00;100992.38;4803561;29;20039;-86
2023/07/26 05:48:10;;;;;;;12.63;7.67;;;;;;;12.78;100.00;100985.34;4788405;29;20365;-88
2023/07/26 05:50:35;;;;;;;11.32;7.55;;;;;;;12.90;100.00;100990.03;4789758;29;20122;-89
2023/07/26 05:53:06;;;;;;;13.85;7.63;;;;;;;12.91;100.00;100992.53;4806531;29;20138;-96
2023/07/26 05:55:32;;;;;;;10.27;6.80;;;;;;;13.02;100.00;100990.94;4806624;29;20027;-89
2023/07/26 05:57:58;;;;;;;12.82;7.78;;;;;;;13.14;100.00;100986.38;4806486;29;20450;-88
2023/07/26 06:00:24;;;;;;;13.13;7.75;;;;;;;13.17;100.00;100979.66;4806213;29;20042;-87
2023/07/26 06:02:49;;;;;;;12.97;7.50;;;;;;;13.33;100.00;100980.88;4806753;29;20384;-90
2023/07/26 06:05:15;;;;;;;11.13;8.07;;;;;;;13.53;100.00;100988.00;4809030;29;20050;-89
2023/07/26 06:07:40;;;;;;;12.63;8.07;;;;;;;13.68;100.00;100982.94;4810030;29;20042;-90
2023/07/26 06:10:11;;;;;;;11.60;7.47;;;;;;;13.87;100.00;100980.97;4808751;29;20110;-92
2023/07/26 06:12:37;;;;;;;11.32;7.40;;;;;;;14.12;100.00;101001.78;4779673;29;20042;-89
2023/07/26 06:15:03;;;;;;;14.68;8.35;;;;;;;14.13;100.00;101000.69;4825474;29;20038;-88
2023/07/26 06:17:29;;;;;;;14.15;8.10;;;;;;;14.18;100.00;101015.28;4779083;29;20510;-87
2023/07/26 06:19:55;;;;;;;17.30;7.80;;;;;;;14.23;100.00;101008.31;4807524;29;20046;-88
2023/07/26 06:22:20;;;;;;;13.80;7.53;;;;;;;14.32;100.00;101007.75;4825812;29;20098;-88
2023/07/26 06:24:45;;;;;;;14.23;8.95;;;;;;;14.38;100.00;101011.41;4825391;29;20105;-88
2023/07/26 06:27:11;;;;;;;13.47;7.90;;;;;;;14.45;100.00;101024.94;4793754;29;20441;-88
2023/07/26 06:29:37;;;;;;;16.00;8.07;;;;;;;14.55;100.00;101028.72;4808668;29;20070;-87
2023/07/26 06:32:03;;;;;;;18.02;9.10;;;;;;;14.54;100.00;101026.25;4808961;29;20053;-88
2023/07/26 06:34:29;;;;;;;16.42;8.35;;;;;;;14.48;100.00;101038.97;4794017;29;20030;-88
2023/07/26 06:36:54;;;;;;;13.20;8.00;;;;;;;14.46;100.00;101046.53;4825130;29;20034;-88
2023/07/26 06:39:19;;;;;;;15.40;8.50;;;;;;;14.39;100.00;101041.22;4793057;29;20400;-88
2023/07/26 06:41:45;;;;;;;14.33;8.40;;;;;;;14.21;100.00;101049.47;4778722;29;20438;-87
2023/07/26 06:44:13;;;;;;;22.70;9.50;;;;;;;14.09;100.00;101051.38;4808490;29;20049;-91
2023/07/26 06:46:41;;;;;;;18.92;10.02;;;;;;;13.96;100.00;101055.13;4808526;29;20045;-89
2023/07/26 06:49:14;;;;;;;16.58;10.00;;;;;;;13.82;100.00;101046.31;4793425;29;20484;-90
2023/07/26 06:51:42;;;;;;;19.58;10.32;;;;;;;13.75;100.00;101049.13;4808313;29;20026;-90
2023/07/26 06:54:09;;;;;;;16.98;10.48;;;;;;;13.70;100.00;101054.47;4808493;29;20038;-90
2023/07/26 06:56:37;;;;;;;17.13;10.60;;;;;;;13.64;100.00;101058.94;4808312;29;20034;-90
2023/07/26 06:59:11;;;;;;;16.70;10.68;;;;;;;13.53;100.00;101054.25;4808641;29;20127;-90
2023/07/26 07:01:36;;;;;;;19.40;10.68;;;;;;;13.41;100.00;101051.47;4808764;29;20046;-89
2023/07/26 07:04:05;;;;;;;19.60;11.20;;;;;;;13.43;100.00;101054.78;4808307;29;20056;-90
2023/07/26 07:06:40;;;;;;;20.77;11.98;;;;;;;13.51;100.00;101062.66;4808004;29;20058;-90
2023/07/26 07:09:09;;;;;;;19.65;11.43;;;;;;;13.44;100.00;101059.19;4793387;29;20091;-90
2023/07/26 07:11:36;;;;;;;20.08;11.55;;;;;;;13.30;100.00;101055.78;4808382;29;20037;-90
2023/07/26 07:14:15;;;;;;;;;;;;;;;;;;;;;
2023/07/26 07:16:43;;;;;;;20.93;12.80;;;;;;;13.29;100.00;101062.28;4824724;29;20042;-91
2023/07/26 07:19:17;;;;;;;17.25;11.73;;;;;;;13.33;100.00;101079.00;4778364;29;20141;-91
2023/07/26 07:21:44;;;;;;;23.05;11.40;;;;;;;13.46;100.00;101089.78;4808273;29;20041;-91
2023/07/26 07:24:19;;;;;;;23.95;12.88;;;;;;;13.53;100.00;101097.03;4808099;29;20039;-90
2023/07/26 07:26:50;;;;;;;21.60;12.13;;;;;;;13.70;100.00;101084.44;4808912;29;20030;-91
2023/07/26 07:29:25;;;;;;;23.27;12.40;;;;;;;13.76;100.00;101091.69;4809079;29;20062;-91
2023/07/26 07:31:50;;;;;;;24.65;12.52;;;;;;;14.03;100.00;101102.22;4808514;29;20031;-91
2023/07/26 07:34:19;;;;;;;19.83;11.40;;;;;;;14.17;100.00;101094.66;4793356;29;20385;-91
2023/07/26 07:36:54;;;;;;;18.08;11.43;;;;;;;14.20;100.00;101099.66;4808062;29;20031;-93
2023/07/26 07:39:22;;;;;;;18.45;11.40;;;;;;;14.24;100.00;101105.50;4809058;29;20034;-92
2023/07/26 07:44:41;;;;;;;17.38;10.73;;;;;;;13.93;100.00;101100.06;4824899;29;20479;-94
2023/07/26 07:47:11;;;;;;;22.57;10.47;;;;;;;13.99;100.00;101099.13;4793842;29;20089;-92
2023/07/26 07:49:42;;;;;;;19.52;11.23;;;;;;;14.14;100.00;101085.06;4808460;29;20388;-92
2023/07/26 07:52:10;;;;;;;20.83;10.80;;;;;;;14.36;100.00;101093.53;4793957;29;20445;-92
2023/07/26 07:54:38;;;;;;;16.70;10.90;;;;;;;14.38;100.00;101093.31;4794025;29;20045;-92
2023/07/26 07:57:17;;;;;;;20.40;12.00;;;;;;;14.41;100.00;101091.97;4811556;29;20098;-93
2023/07/26 07:59:45;;;;;;;15.57;10.27;;;;;;;14.36;100.00;101092.69;4797159;29;20058;-91
2023/07/26 08:02:23;;;;;;;20.02;10.38;;;;;;;14.34;100.00;101095.66;4811302;29;20038;-91
2023/07/26 08:04:53;;;;;;;19.10;10.57;;;;;;;14.20;100.00;101086.00;4796872;29;20133;-92
2023/07/26 08:07:37;;;;;;;21.13;11.77;;;;;;;14.25;100.00;101090.78;4812311;29;20064;-92
2023/07/26 08:10:02;;;;;;;18.80;11.18;;;;;;;14.37;100.00;101089.72;4811399;29;20071;-92
2023/07/26 08:12:35;;;;;;;17.63;11.60;;;;;;;14.44;100.00;101089.63;4811112;29;20065;-92
2023/07/26 08:15:08;;;;;;;16.20;10.20;;;;;;;14.44;100.00;101088.78;4811414;29;20026;-92
2023/07/26 08:17:36;;;;;;;17.05;10.30;;;;;;;14.49;100.00;101083.47;4811303;29;20070;-91
2023/07/26 08:20:05;;;;;;;15.60;10.15;;;;;;;14.63;100.00;101086.81;4811168;29;20086;-91
2023/07/26 08:22:38;;;;;;;19.43;10.13;;;;;;;14.77;100.00;101090.97;4811176;29;20038;-91
2023/07/26 08:25:14;;;;;;;12.85;9.30;;;;;;;14.84;100.00;101082.69;4811374;29;20038;-91
2023/07/26 08:27:42;;;;;;;14.18;9.60;;;;;;;14.93;100.00;101081.25;4811307;29;20074;-91
2023/07/26 08:30:21;;;;;;;;;;;;;;;;;;;;;
2023/07/26 08:32:51;;;;;;;12.88;9.40;;;;;;;15.23;100.00;101078.34;4827570;29;20046;-91
2023/07/26 08:35:17;;;;;;;16.53;9.03;;;;;;;15.38;100.00;101090.66;4811537;29;20035;-91
2023/07/26 08:37:50;;;;;;;16.40;8.95;;;;;;;15.68;100.00;101085.00;4810652;29;20057;-90
2023/07/26 08:40:18;;;;;;;12.07;8.93;;;;;;;15.90;100.00;101084.31;4810510;29;20038;-91
2023/07/26 08:42:49;;;;;;;12.40;8.77;;;;;;;15.96;100.00;101077.91;4810748;29;20034;-91
2023/07/26 08:45:22;;;;;;;12.02;8.43;;;;;;;16.07;100.00;101089.84;4796153;29;20034;-91
2023/07/26 08:47:56;;;;;;;13.85;8.77;;;;;;;16.12;100.00;101087.19;4810507;29;20054;-91
2023/07/26 08:50:25;;;;;;;14.82;7.95;;;;;;;16.19;100.00;101081.56;4810613;29;20046;-90
2023/07/26 08:52:55;;;;;;;12.38;7.40;;;;;;;16.35;100.00;101082.66;4810382;29;20051;-90
2023/07/26 08:55:26;;;;;;;11.40;7.73;;;;;;;16.38;100.00;101082.97;4810824;29;20034;-91
2023/07/26 08:57:52;;;;;;;10.52;7.18;;;;;;;16.67;100.00;101086.47;4810409;29;20042;-90
2023/07/26 09:00:18;;;;;;;8.33;6.43;;;;;;;16.78;100.00;101081.97;4810328;29;20121;-90
2023/07/26 09:02:46;;;;;;;10.00;6.43;;;;;;;17.01;99.49;101067.25;4810261;29;20125;-90
2023/07/26 09:05:12;;;;;;;8.15;5.80;;;;;;;17.26;93.32;101076.91;4809876;29;20122;-90
2023/07/26 09:07:43;;;;;;;9.10;6.20;;;;;;;17.66;93.98;101066.69;4807444;29;20653;-91
2023/07/26 09:10:09;;;;;;;6.57;4.80;;;;;;;18.10;89.46;101068.50;4777458;29;20049;-91
2023/07/26 09:12:39;;;;;;;10.17;4.50;;;;;;;18.08;84.92;101063.28;4794449;29;20124;-91
2023/07/26 09:15:08;;;;;;;6.68;4.85;;;;;;;18.06;86.10;101065.47;4795392;29;20030;-92
2023/07/26 09:17:54;;;;;;;10.30;5.75;;;;;;;17.92;89.06;101067.78;4808865;29;20043;-91
2023/07/26 09:20:28;;;;;;;6.82;4.90;;;;;;;18.03;86.42;101072.31;4809733;29;20067;-91
2023/07/26 09:23:06;;;;;;;11.13;5.60;;;;;;;18.33;85.99;101083.81;4795788;29;20043;-91
2023/07/26 09:25:43;;;;;;;8.85;5.20;;;;;;;18.33;82.30;101078.34;4810422;29;20042;-91
2023/07/26 09:28:14;;;;;;;9.05;4.45;;;;;;;18.58;79.89;101066.72;4793404;29;20034;-91
2023/07/26 09:30:45;;;;;;;4.13;2.90;;;;;;;18.71;74.70;101077.25;4807857;29;20034;-91
2023/07/26 09:33:20;;;;;;;6.47;4.00;;;;;;;18.64;74.65;101076.63;4797420;29;20038;-91
2023/07/26 09:35:52;;;;;;;5.60;4.20;;;;;;;18.51;76.77;101069.69;4793303;29;20102;-90
2023/07/26 09:38:30;;;;;;;6.05;3.15;;;;;;;18.52;73.01;101074.09;4796119;29;20026;-91
2023/07/26 09:40:56;;;;;;;4.05;2.50;;;;;;;18.46;70.27;101079.81;4809401;29;20086;-92
2023/07/26 09:43:29;;;;;;;4.43;2.70;;;;;;;18.36;71.17;101083.28;4776664;29;20042;-91
2023/07/26 09:46:02;;;;;;;4.43;2.00;;;;;;;18.17;67.37;101080.97;4791654;29;20280;-90
2023/07/26 09:48:53;;;;;;;2.85;1.70;;;;;;;18.03;65.74;101069.56;4782481;29;20094;-92
2023/07/26 09:51:27;;;;;;;2.65;1.13;;;;;;;18.02;59.50;101069.81;4801225;29;20527;-91
2023/07/26 09:53:58;;;;;;;2.08;1.33;;;;;;;18.24;60.10;101064.25;4795906;29;20062;-91
2023/07/26 09:56:34;;;;;;;2.33;1.60;;;;;;;18.48;61.82;101086.69;4807677;29;20110;-91
2023/07/26 09:59:07;;;;;;;2.70;1.50;;;;;;;18.35;64.17;101065.16;4791549;29;20031;-91
2023/07/26 10:01:43;;;;;;;3.15;1.90;;;;;;;18.41;64.49;101062.19;4791601;29;20034;-91
2023/07/26 10:04:36;;;;;;;3.03;2.08;;;;;;;18.50;66.03;101065.28;4791637;29;20037;-91
2023/07/26 10:07:09;;;;;;;3.88;2.30;;;;;;;18.45;68.07;101067.97;4784050;29;20063;-91
2023/07/26 10:09:39;;;;;;;4.65;2.83;;;;;;;18.48;70.64;101075.69;4788068;30;20027;-92
2023/07/26 10:12:09;;;;;;;6.73;3.03;;;;;;;18.46;71.39;101061.41;4789250;30;20126;-91
2023/07/26 10:14:36;;;;;;;4.53;2.90;;;;;;;18.44;69.84;101071.00;4787973;30;20035;-91
2023/07/26 10:17:06;;;;;;;5.07;3.28;;;;;;;18.42;70.58;101065.75;4787157;29;20044;-91
2023/07/26 10:19:36;;;;;;;7.07;3.92;;;;;;;18.40;72.35;101066.03;4788067;29;20118;-91
2023/07/26 10:22:08;;;;;;;7.05;3.80;;;;;;;18.52;73.62;101063.09;4787799;29;20035;-90
2023/07/26 10:24:39;;;;;;;5.97;4.20;;;;;;;18.87;74.62;101058.16;4789277;29;20089;-91
2023/07/26 10:27:07;;;;;;;6.65;3.75;;;;;;;19.44;73.88;101054.56;4787737;30;20500;-90
2023/07/26 10:29:44;;;;;;;5.72;3.85;;;;;;;19.63;70.55;101054.03;4773333;30;20489;-89
2023/07/26 10:32:12;;;;;;;8.07;4.38;;;;;;;19.72;69.29;101049.66;4781881;30;20502;-90
2023/07/26 10:35:05;;;;;;;6.43;3.35;;;;;;;19.91;68.86;101065.69;4787999;30;20175;-90
2023/07/26 10:37:36;;;;;;;5.40;3.57;;;;;;;19.96;69.25;101054.69;4787578;30;20202;-89
2023/07/26 10:40:31;;;;;;;7.50;4.35;;;;;;;20.05;68.38;101068.72;4787416;29;20054;-88
2023/07/26 10:49:28;;;;;;;6.32;3.97;;;;;;;19.45;69.80;101058.94;4788537;30;20047;-89
2023/07/26 10:52:00;;;;;;;6.13;4.10;;;;;;;19.54;70.38;101061.19;4787848;30;20027;-90
2023/07/26 10:54:41;;;;;;;6.75;4.22;;;;;;;19.75;72.26;101045.53;4773249;30;20042;-89
2023/07/26 10:57:21;;;;;;;6.88;4.18;;;;;;;20.05;69.54;101049.47;4788086;29;20039;-88
2023/07/26 10:59:58;;;;;;;5.85;3.70;;;;;;;20.05;66.93;101050.31;4787457;30;20541;-87
2023/07/26 11:02:38;;;;;;;7.03;3.70;;;;;;;20.20;66.19;101057.75;4788638;29;20038;-86
2023/07/26 11:05:09;;;;;;;8.07;3.77;;;;;;;20.15;64.91;101054.97;4788630;29;20500;-86
2023/07/26 11:07:54;;;;;;;4.72;3.20;;;;;;;20.31;64.40;101056.66;4789822;29;20043;-86
2023/07/26 11:10:23;;;;;;;6.80;3.58;;;;;;;20.28;62.34;101051.66;4805812;29;20043;-88
2023/07/26 11:12:50;;;;;;;7.07;3.88;;;;;;;20.39;63.01;101057.19;4790646;29;20058;-85
2023/07/26 11:15:29;;;;;;;5.93;3.95;;;;;;;20.68;64.96;101049.19;4790133;29;20038;-85
2023/07/26 11:17:55;;;;;;;10.23;4.13;;;;;;;20.85;64.10;101057.16;4806731;29;20051;-85
2023/07/26 11:20:21;;;;;;;6.07;3.90;;;;;;;21.17;59.24;101048.50;4775338;29;20049;-86
2023/07/26 11:22:46;;;;;;;7.23;3.43;;;;;;;21.84;59.55;101052.88;4806524;29;20042;-85
2023/07/26 11:25:12;;;;;;;5.68;3.85;;;;;;;22.00;58.34;101064.66;4806578;29;20426;-85
2023/07/26 11:27:37;;;;;;;5.37;4.00;;;;;;;22.33;57.87;101054.72;4775090;29;20074;-85
2023/07/26 11:30:04;;;;;;;8.63;3.63;;;;;;;24.15;52.13;101055.84;4776811;29;20392;-85
2023/07/26 11:32:29;;;;;;;6.00;3.30;;;;;;;25.30;48.27;101045.16;4778507;29;20488;-85
2023/07/26 11:34:55;;;;;;;4.37;2.87;;;;;;;24.75;45.20;101050.69;4813561;29;20052;-95
2023/07/26 11:37:21;;;;;;;6.33;2.97;;;;;;;25.31;45.67;101063.47;4810950;29;20304;-94
2023/07/26 11:39:46;;;;;;;5.78;3.15;;;;;;;26.68;41.83;101054.13;4825845;29;20035;-96
2023/07/26 11:42:18;;;;;;;3.60;2.87;;;;;;;27.83;39.44;101059.69;4796912;29;20035;-96
2023/07/26 11:44:49;;;;;;;6.47;2.97;;;;;;;26.46;38.94;101065.25;4800129;29;20098;-96
2023/07/26 11:47:15;;;;;;;4.90;2.83;;;;;;;24.99;41.46;101059.63;4829277;29;20613;-96
2023/07/26 11:49:42;;;;;;;5.37;2.97;;;;;;;24.04;42.95;101067.41;4813217;29;20067;-96
2023/07/26 11:52:14;;;;;;;3.70;2.47;;;;;;;25.52;42.38;101060.25;4798318;29;20474;-96
2023/07/26 11:54:54;;;;;;;3.10;2.27;;;;;;;27.26;38.38;101085.63;4797454;29;20043;-96
2023/07/26 11:57:20;;;;;;;3.47;2.35;;;;;;;29.18;32.03;101051.16;4779469;29;20069;-95
2023/07/26 11:59:46;;;;;;;3.90;2.65;;;;;;;30.69;30.16;101060.78;4796006;29;20384;-95